• Join FlightAware (Why Join?)
  • Login
  • US Flag 
11:17AM EDT


 

Airport Tracker/Info


-or-


 

Live Flight TrackerFlight Track Log ✈ N57870 ✈ 02-May-2013 ✈ KSFO - PHOG / OGG

Flight Track Log - Related Links

Times and Time Zones

All times are in EDT time to prevent confusion due to time zone crossing. See the N57870 flight status page for this flight to view local times or setup timezone preferences in your user account.

Time Position Orientation Groundspeed Altitude Reporting Facility
EDT Latitude Longitude Course Direction KTS MPH feet Rate Location/Type
05:43PM 37.5906 -122.4625 251° West  Level FlightAware Approximate
05:43PM 37.7020 -122.6590 251° West 268 308 8,000  Level FlightAware
05:43PM 37.6910 -122.6980 250° West 275 316 9,000 1,920 Climbing FlightAware
05:44PM 37.6700 -122.7680 249° West 301 346 10,300 1,260 Climbing FlightAware
05:45PM 37.6510 -122.8360 251° West 344 396 10,800 1,080 Climbing FlightAware
05:45PM 37.6250 -122.9280 250° West 370 426 11,900 1,620 Climbing FlightAware
05:46PM 37.6070 -122.9970 252° West 382 440 13,000 780 Climbing FlightAware
05:47PM 37.5840 -123.0810 251° West 382 440 13,000  Level FlightAware
05:47PM 37.5650 -123.1530 252° West 382 440 13,000 2,340 Level FlightAware
05:48PM 37.5230 -123.3050 251° West 394 453 16,900 2,340 Climbing FlightAware
05:49PM 37.5030 -123.3790 251° West 394 453 16,900  Level FlightAware
05:50PM 37.4830 -123.4530 251° West 394 453 16,900  Level FlightAware
05:50PM 37.4630 -123.5260 251° West 394 453 16,900  Level FlightAware
05:51PM 37.4380 -123.6190 251° West 394 453 16,900  Level FlightAware
05:52PM 37.4220 -123.6740 250° West 394 453 16,900 4,320 Level FlightAware
05:53PM 37.3475 -123.9472 250° West 443 510 24,600 3,840 Climbing Oakland Center
05:54PM 37.3047 -124.0950 250° West 450 518 25,800 1,200 Climbing Oakland Center
05:55PM 37.2636 -124.2486 251° West 460 529 27,100 1,260 Climbing Oakland Center
05:56PM 37.2214 -124.3978 250° West 459 528 28,500 1,380 Climbing Oakland Center
05:57PM 37.1708 -124.5775 251° West 456 525 30,000 1,140 Climbing Oakland Center
05:58PM 37.1267 -124.7264 250° West 457 526 30,900 1,080 Climbing Oakland Center
05:59PM 37.0842 -124.8753 250° West 457 526 32,300 1,200 Climbing Oakland Center
06:00PM 37.0417 -125.0214 250° West 450 518 33,400 780 Climbing Oakland Center
06:01PM 36.9992 -125.1675 250° West 448 516 34,000 240 Climbing Oakland Center
06:02PM 36.9567 -125.3147 250° West 449 517 34,000  Level Oakland Center
06:03PM 36.9119 -125.4611 249° West 451 519 34,000  Level Oakland Center
06:04PM 36.8697 -125.6053 250° West 445 512 34,000  Level Oakland Center
06:05PM 36.8275 -125.7525 250° West 449 517 34,000  Level Oakland Center
06:06PM 36.7742 -125.9244 249° West 446 513 34,000  Level Oakland Center
06:07PM 36.7311 -126.0681 250° West 444 511 34,000  Level Oakland Center
06:08PM 36.6886 -126.2150 250° West 448 516 34,000  Level Oakland Center
06:09PM 36.6436 -126.3575 249° West 445 512 34,000  Level Oakland Center
06:10PM 36.6000 -126.5033 250° West 447 514 34,000  Level Oakland Center
06:11PM 36.5603 -126.6517 252° West 450 518 34,000  Level Oakland Center
06:12PM 36.5147 -126.7989 249° West 454 522 34,000  Level Oakland Center
06:13PM 36.4694 -126.9453 249° West 455 524 34,000  Level Oakland Center
06:14PM 36.4667 -126.9333 250° West 452 520 34,000  Level Oakland Oceanic (ODAPS)
06:21PM 36.1197 -128.1034 249° West 452 520 34,000  Level FlightAware Transoceanic
06:22PM 36.0756 -128.2490 249° West 452 520 34,000  Level FlightAware Transoceanic
06:23PM 36.0312 -128.3943 249° West 452 520 34,000  Level FlightAware Transoceanic
06:24PM 35.9867 -128.5395 249° West 452 520 34,000  Level FlightAware Transoceanic
06:25PM 35.9420 -128.6846 249° West 452 520 34,000  Level FlightAware Transoceanic
06:26PM 35.8971 -128.8294 249° West 452 520 34,000  Level FlightAware Transoceanic
06:27PM 35.8521 -128.9742 249° West 452 520 34,000  Level FlightAware Transoceanic
06:28PM 35.8069 -129.1187 249° West 452 520 34,000  Level FlightAware Transoceanic
06:29PM 35.7615 -129.2631 249° West 452 520 34,000  Level FlightAware Transoceanic
06:30PM 35.7160 -129.4073 249° West 452 520 34,000  Level FlightAware Transoceanic
06:31PM 35.6702 -129.5513 249° West 452 520 34,000  Level FlightAware Transoceanic
06:32PM 35.6243 -129.6952 249° West 452 520 34,000  Level FlightAware Transoceanic
06:33PM 35.5783 -129.8389 248° West 452 520 34,000  Level FlightAware Transoceanic
06:34PM 35.5320 -129.9825 248° West 452 520 34,000  Level FlightAware Transoceanic
06:35PM 35.4856 -130.1259 248° West 452 520 34,000  Level FlightAware Transoceanic
06:36PM 35.4390 -130.2691 248° West 452 520 34,000  Level FlightAware Transoceanic
06:37PM 35.3923 -130.4122 248° West 452 520 34,000  Level FlightAware Transoceanic
06:38PM 35.3454 -130.5551 248° West 452 520 34,000  Level FlightAware Transoceanic
06:39PM 35.2983 -130.6978 248° West 452 520 34,000  Level FlightAware Transoceanic
06:40PM 35.2510 -130.8403 248° West 452 520 34,000  Level FlightAware Transoceanic
06:41PM 35.2036 -130.9827 248° West 452 520 34,000  Level FlightAware Transoceanic
06:42PM 35.1560 -131.1249 248° West 452 520 34,000  Level FlightAware Transoceanic
06:43PM 35.1082 -131.2670 248° West 452 520 34,000  Level FlightAware Transoceanic
06:44PM 35.0603 -131.4089 248° West 452 520 34,000  Level FlightAware Transoceanic
06:45PM 35.0122 -131.5506 247° West 452 520 34,000  Level FlightAware Transoceanic
06:46PM 34.9640 -131.6922 247° West 452 520 34,000  Level FlightAware Transoceanic
06:47PM 34.9156 -131.8336 247° West 452 520 34,000  Level FlightAware Transoceanic
06:48PM 34.8670 -131.9748 247° West 452 520 34,000  Level FlightAware Transoceanic
06:49PM 34.8183 -132.1158 247° West 452 520 34,000  Level FlightAware Transoceanic
06:50PM 34.7694 -132.2567 247° West 452 520 34,000  Level FlightAware Transoceanic
06:51PM 34.7203 -132.3974 247° West 452 520 34,000  Level FlightAware Transoceanic
06:52PM 34.6711 -132.5380 247° West 452 520 34,000  Level FlightAware Transoceanic
06:53PM 34.6217 -132.6784 247° West 452 520 34,000  Level FlightAware Transoceanic
06:54PM 34.5722 -132.8186 247° West 452 520 34,000  Level FlightAware Transoceanic
06:55PM 34.5224 -132.9587 247° West 452 520 34,000  Level FlightAware Transoceanic
06:56PM 34.4726 -133.0986 247° West 452 520 34,000  Level FlightAware Transoceanic
06:57PM 34.4226 -133.2383 246° West 452 520 34,000  Level FlightAware Transoceanic
06:58PM 34.3724 -133.3778 246° West 452 520 34,000  Level FlightAware Transoceanic
06:59PM 34.3220 -133.5172 246° West 452 520 34,000  Level FlightAware Transoceanic
07:00PM 34.2715 -133.6564 246° West 452 520 34,000  Level FlightAware Transoceanic
07:01PM 34.2209 -133.7955 246° West 452 520 34,000  Level FlightAware Transoceanic
07:02PM 34.1701 -133.9344 246° West 452 520 34,000  Level FlightAware Transoceanic
07:03PM 34.1191 -134.0731 246° West 452 520 34,000  Level FlightAware Transoceanic
07:04PM 34.0680 -134.2116 246° West 452 520 34,000  Level FlightAware Transoceanic
07:05PM 34.0167 -134.3500 246° West 452 520 34,000  Level FlightAware Transoceanic
07:06PM 33.9616 -134.4989 246° West 452 520 34,000  Level FlightAware Transoceanic
07:06PM 34.0167 -134.3500 246° West 459 528 34,000  Level Oakland Oceanic (ODAPS)
07:07PM 33.9064 -134.6477 246° West 452 520 34,000  Level FlightAware Transoceanic
07:08PM 33.8510 -134.7963 246° West 452 520 34,000  Level FlightAware Transoceanic
07:09PM 33.7955 -134.9446 246° West 452 520 34,000  Level FlightAware Transoceanic
07:10PM 33.7397 -135.0928 246° West 452 520 34,000  Level FlightAware Transoceanic
07:11PM 33.6838 -135.2408 246° West 452 520 34,000  Level FlightAware Transoceanic
07:12PM 33.6508 -135.3277 245° Southwest 459 528 34,000  Level FlightAware Transoceanic
07:13PM 33.5979 -135.4667 245° Southwest 459 528 34,000  Level FlightAware Transoceanic
07:14PM 33.5449 -135.6055 245° Southwest 459 528 34,000  Level FlightAware Transoceanic
07:15PM 33.4917 -135.7442 245° Southwest 459 528 34,000  Level FlightAware Transoceanic
07:16PM 33.4383 -135.8827 245° Southwest 459 528 34,000  Level FlightAware Transoceanic
07:17PM 33.3848 -136.0210 245° Southwest 459 528 34,000  Level FlightAware Transoceanic
07:18PM 33.3312 -136.1591 245° Southwest 459 528 34,000  Level FlightAware Transoceanic
07:19PM 33.2773 -136.2971 245° Southwest 459 528 34,000  Level FlightAware Transoceanic
07:20PM 33.2234 -136.4349 245° Southwest 459 528 34,000  Level FlightAware Transoceanic
07:21PM 33.1692 -136.5725 245° Southwest 459 528 34,000  Level FlightAware Transoceanic
07:22PM 33.1150 -136.7100 245° Southwest 459 528 34,000  Level FlightAware Transoceanic
07:23PM 33.0606 -136.8473 245° Southwest 459 528 34,000  Level FlightAware Transoceanic
07:24PM 33.0060 -136.9844 245° Southwest 459 528 34,000  Level FlightAware Transoceanic
07:25PM 32.9513 -137.1214 244° Southwest 459 528 34,000  Level FlightAware Transoceanic
07:26PM 32.8964 -137.2581 244° Southwest 459 528 34,000  Level FlightAware Transoceanic
07:27PM 32.8414 -137.3948 244° Southwest 459 528 34,000  Level FlightAware Transoceanic
07:28PM 32.7862 -137.5312 244° Southwest 459 528 34,000  Level FlightAware Transoceanic
07:29PM 32.7309 -137.6675 244° Southwest 459 528 34,000  Level FlightAware Transoceanic
07:30PM 32.6754 -137.8036 244° Southwest 459 528 34,000  Level FlightAware Transoceanic
07:31PM 32.6198 -137.9395 244° Southwest 459 528 34,000  Level FlightAware Transoceanic
07:32PM 32.5641 -138.0753 244° Southwest 459 528 34,000  Level FlightAware Transoceanic
07:33PM 32.5082 -138.2109 244° Southwest 459 528 34,000  Level FlightAware Transoceanic
07:34PM 32.4521 -138.3463 244° Southwest 459 528 34,000  Level FlightAware Transoceanic
07:35PM 32.3959 -138.4816 244° Southwest 459 528 34,000  Level FlightAware Transoceanic
07:36PM 32.3396 -138.6167 244° Southwest 459 528 34,000  Level FlightAware Transoceanic
07:37PM 32.2831 -138.7516 244° Southwest 459 528 34,000  Level FlightAware Transoceanic
07:38PM 32.2265 -138.8863 244° Southwest 459 528 34,000  Level FlightAware Transoceanic
07:39PM 32.1697 -139.0209 243° Southwest 459 528 34,000  Level FlightAware Transoceanic
07:40PM 32.1128 -139.1553 243° Southwest 459 528 34,000  Level FlightAware Transoceanic
07:41PM 32.0558 -139.2896 243° Southwest 459 528 34,000  Level FlightAware Transoceanic
07:42PM 31.9986 -139.4237 243° Southwest 459 528 34,000  Level FlightAware Transoceanic
07:43PM 31.9412 -139.5576 243° Southwest 459 528 34,000  Level FlightAware Transoceanic
07:44PM 31.8838 -139.6913 243° Southwest 459 528 34,000  Level FlightAware Transoceanic
07:45PM 31.8262 -139.8249 243° Southwest 459 528 34,000  Level FlightAware Transoceanic
07:46PM 31.7684 -139.9583 243° Southwest 459 528 34,000  Level FlightAware Transoceanic
07:47PM 31.7105 -140.0916 243° Southwest 459 528 34,000  Level FlightAware Transoceanic
07:48PM 31.6525 -140.2247 243° Southwest 459 528 34,000  Level FlightAware Transoceanic
07:49PM 31.5943 -140.3576 243° Southwest 459 528 34,000  Level FlightAware Transoceanic
07:50PM 31.5360 -140.4903 243° Southwest 459 528 34,000  Level FlightAware Transoceanic
07:51PM 31.4776 -140.6229 243° Southwest 459 528 34,000  Level FlightAware Transoceanic
07:52PM 31.4190 -140.7553 243° Southwest 459 528 34,000  Level FlightAware Transoceanic
07:53PM 31.3603 -140.8876 242° Southwest 459 528 34,000  Level FlightAware Transoceanic
07:54PM 31.3014 -141.0197 242° Southwest 459 528 34,000  Level FlightAware Transoceanic
07:55PM 31.2425 -141.1516 242° Southwest 459 528 34,000  Level FlightAware Transoceanic
07:56PM 31.1833 -141.2833 242° Southwest 459 528 34,000  Level FlightAware Transoceanic
07:57PM 31.1210 -141.4213 242° Southwest 459 528 34,000  Level FlightAware Transoceanic
07:58PM 31.0586 -141.5591 242° Southwest 459 528 34,000  Level FlightAware Transoceanic
07:58PM 31.1833 -141.2833 242° Southwest 471 542 34,000  Level Oakland Oceanic (ODAPS)
07:59PM 30.9960 -141.6968 242° Southwest 459 528 34,000  Level FlightAware Transoceanic
08:00PM 30.9333 -141.8342 242° Southwest 459 528 34,000  Level FlightAware Transoceanic
08:01PM 30.8705 -141.9715 242° Southwest 459 528 34,000  Level FlightAware Transoceanic
08:02PM 30.8074 -142.1086 242° Southwest 459 528 34,000  Level FlightAware Transoceanic
08:03PM 30.7443 -142.2455 242° Southwest 459 528 34,000  Level FlightAware Transoceanic
08:04PM 30.6288 -142.4946 242° Southwest 471 542 34,000  Level FlightAware Transoceanic
08:05PM 30.5665 -142.6284 242° Southwest 471 542 34,000  Level FlightAware Transoceanic
08:06PM 30.5040 -142.7619 241° Southwest 471 542 34,000  Level FlightAware Transoceanic
08:07PM 30.4414 -142.8953 241° Southwest 471 542 34,000  Level FlightAware Transoceanic
08:08PM 30.3787 -143.0285 241° Southwest 471 542 34,000  Level FlightAware Transoceanic
08:09PM 30.3158 -143.1616 241° Southwest 471 542 34,000  Level FlightAware Transoceanic
08:10PM 30.2529 -143.2944 241° Southwest 471 542 34,000  Level FlightAware Transoceanic
08:11PM 30.1897 -143.4271 241° Southwest 471 542 34,000  Level FlightAware Transoceanic
08:12PM 30.1265 -143.5597 241° Southwest 471 542 34,000  Level FlightAware Transoceanic
08:13PM 30.0631 -143.6920 241° Southwest 471 542 34,000  Level FlightAware Transoceanic
08:14PM 29.9996 -143.8242 241° Southwest 471 542 34,000  Level FlightAware Transoceanic
08:15PM 29.9359 -143.9562 241° Southwest 471 542 34,000  Level FlightAware Transoceanic
08:16PM 29.8721 -144.0881 241° Southwest 471 542 34,000  Level FlightAware Transoceanic
08:17PM 29.8082 -144.2198 241° Southwest 471 542 34,000  Level FlightAware Transoceanic
08:18PM 29.7442 -144.3513 241° Southwest 471 542 34,000  Level FlightAware Transoceanic
08:19PM 29.6800 -144.4826 241° Southwest 471 542 34,000  Level FlightAware Transoceanic
08:20PM 29.6157 -144.6138 241° Southwest 471 542 34,000  Level FlightAware Transoceanic
08:21PM 29.5513 -144.7448 240° Southwest 471 542 34,000  Level FlightAware Transoceanic
08:22PM 29.4867 -144.8757 240° Southwest 471 542 34,000  Level FlightAware Transoceanic
08:23PM 29.4220 -145.0063 240° Southwest 471 542 34,000  Level FlightAware Transoceanic
08:24PM 29.3572 -145.1369 240° Southwest 471 542 34,000  Level FlightAware Transoceanic
08:25PM 29.2922 -145.2672 240° Southwest 471 542 34,000  Level FlightAware Transoceanic
08:26PM 29.2272 -145.3974 240° Southwest 471 542 34,000  Level FlightAware Transoceanic
08:27PM 29.1620 -145.5274 240° Southwest 471 542 34,000  Level FlightAware Transoceanic
08:28PM 29.0967 -145.6572 240° Southwest 471 542 34,000  Level FlightAware Transoceanic
08:29PM 29.0312 -145.7869 240° Southwest 471 542 34,000  Level FlightAware Transoceanic
08:30PM 28.9657 -145.9164 240° Southwest 471 542 34,000  Level FlightAware Transoceanic
08:31PM 28.9000 -146.0458 240° Southwest 471 542 34,000  Level FlightAware Transoceanic
08:32PM 28.8341 -146.1750 240° Southwest 471 542 34,000  Level FlightAware Transoceanic
08:33PM 28.7682 -146.3040 240° Southwest 471 542 34,000  Level FlightAware Transoceanic
08:34PM 28.7021 -146.4329 240° Southwest 471 542 34,000  Level FlightAware Transoceanic
08:35PM 28.6360 -146.5616 240° Southwest 471 542 34,000  Level FlightAware Transoceanic
08:36PM 28.5696 -146.6901 240° Southwest 471 542 34,000  Level FlightAware Transoceanic
08:37PM 28.5032 -146.8185 239° Southwest 471 542 34,000  Level FlightAware Transoceanic
08:38PM 28.4367 -146.9467 239° Southwest 471 542 34,000  Level FlightAware Transoceanic
08:39PM 28.3700 -147.0748 239° Southwest 471 542 34,000  Level FlightAware Transoceanic
08:40PM 28.3032 -147.2027 239° Southwest 471 542 34,000  Level FlightAware Transoceanic
08:41PM 28.2363 -147.3304 239° Southwest 471 542 34,000  Level FlightAware Transoceanic
08:42PM 28.1693 -147.4580 239° Southwest 471 542 34,000  Level FlightAware Transoceanic
08:43PM 28.1021 -147.5854 239° Southwest 471 542 34,000  Level FlightAware Transoceanic
08:44PM 28.0349 -147.7126 239° Southwest 471 542 34,000  Level FlightAware Transoceanic
08:45PM 27.9675 -147.8397 239° Southwest 471 542 34,000  Level FlightAware Transoceanic
08:46PM 27.9000 -147.9667 239° Southwest 471 542 34,000  Level FlightAware Transoceanic
08:47PM 27.8347 -148.0889 239° Southwest 471 542 34,000  Level FlightAware Transoceanic
08:48PM 27.7693 -148.2110 239° Southwest 471 542 34,000  Level FlightAware Transoceanic
08:48PM 27.9000 -147.9667 239° Southwest 437 503 34,000  Level Oakland Oceanic (ODAPS)
08:49PM 27.7037 -148.3329 239° Southwest 471 542 34,000  Level FlightAware Transoceanic
08:50PM 27.6381 -148.4547 239° Southwest 471 542 34,000  Level FlightAware Transoceanic
08:51PM 27.5724 -148.5763 239° Southwest 471 542 34,000  Level FlightAware Transoceanic
08:52PM 27.5065 -148.6978 239° Southwest 471 542 34,000  Level FlightAware Transoceanic
08:53PM 27.4406 -148.8191 238° Southwest 471 542 34,000  Level FlightAware Transoceanic
08:54PM 27.4574 -148.7883 238° Southwest 437 503 34,000  Level FlightAware Transoceanic
08:55PM 27.3937 -148.9051 238° Southwest 437 503 34,000  Level FlightAware Transoceanic
08:56PM 27.3300 -149.0218 238° Southwest 437 503 34,000  Level FlightAware Transoceanic
08:57PM 27.2662 -149.1383 238° Southwest 437 503 34,000  Level FlightAware Transoceanic
08:58PM 27.2023 -149.2548 238° Southwest 437 503 34,000  Level FlightAware Transoceanic
08:59PM 27.1383 -149.3711 238° Southwest 437 503 34,000  Level FlightAware Transoceanic
09:00PM 27.0742 -149.4872 238° Southwest 437 503 34,000  Level FlightAware Transoceanic
09:01PM 27.0100 -149.6032 238° Southwest 437 503 34,000  Level FlightAware Transoceanic
09:02PM 26.9457 -149.7191 238° Southwest 437 503 34,000  Level FlightAware Transoceanic
09:03PM 26.8813 -149.8349 238° Southwest 437 503 34,000  Level FlightAware Transoceanic
09:04PM 26.8168 -149.9505 238° Southwest 437 503 34,000  Level FlightAware Transoceanic
09:05PM 26.7522 -150.0660 238° Southwest 437 503 34,000  Level FlightAware Transoceanic
09:06PM 26.6875 -150.1814 238° Southwest 437 503 34,000  Level FlightAware Transoceanic
09:07PM 26.6227 -150.2966 238° Southwest 437 503 34,000  Level FlightAware Transoceanic
09:08PM 26.5579 -150.4117 238° Southwest 437 503 34,000  Level FlightAware Transoceanic
09:09PM 26.4929 -150.5267 238° Southwest 437 503 34,000  Level FlightAware Transoceanic
09:10PM 26.4279 -150.6416 238° Southwest 437 503 34,000  Level FlightAware Transoceanic
09:11PM 26.3627 -150.7563 238° Southwest 437 503 34,000  Level FlightAware Transoceanic
09:12PM 26.2975 -150.8708 238° Southwest 437 503 34,000  Level FlightAware Transoceanic
09:13PM 26.2322 -150.9853 238° Southwest 437 503 34,000  Level FlightAware Transoceanic
09:14PM 26.1668 -151.0996 237° Southwest 437 503 34,000  Level FlightAware Transoceanic
09:15PM 26.1013 -151.2138 237° Southwest 437 503 34,000  Level FlightAware Transoceanic
09:16PM 26.0357 -151.3279 237° Southwest 437 503 34,000  Level FlightAware Transoceanic
09:17PM 25.9700 -151.4418 237° Southwest 437 503 34,000  Level FlightAware Transoceanic
09:18PM 25.9042 -151.5557 237° Southwest 437 503 34,000  Level FlightAware Transoceanic
09:19PM 25.8384 -151.6694 237° Southwest 437 503 34,000  Level FlightAware Transoceanic
09:20PM 25.7724 -151.7829 237° Southwest 437 503 34,000  Level FlightAware Transoceanic
09:21PM 25.7064 -151.8964 237° Southwest 437 503 34,000  Level FlightAware Transoceanic
09:22PM 25.6403 -152.0097 237° Southwest 437 503 34,000  Level FlightAware Transoceanic
09:23PM 25.5741 -152.1229 237° Southwest 437 503 34,000  Level FlightAware Transoceanic
09:24PM 25.5078 -152.2359 237° Southwest 437 503 34,000  Level FlightAware Transoceanic
09:25PM 25.4414 -152.3488 237° Southwest 437 503 34,000  Level FlightAware Transoceanic
09:26PM 25.3749 -152.4617 237° Southwest 437 503 34,000  Level FlightAware Transoceanic
09:27PM 25.3084 -152.5744 237° Southwest 437 503 34,000  Level FlightAware Transoceanic
09:28PM 25.2418 -152.6869 237° Southwest 437 503 34,000  Level FlightAware Transoceanic
09:29PM 25.1750 -152.7993 237° Southwest 437 503 34,000  Level FlightAware Transoceanic
09:30PM 25.1082 -152.9117 237° Southwest 437 503 34,000  Level FlightAware Transoceanic
09:31PM 25.0413 -153.0239 237° Southwest 437 503 34,000  Level FlightAware Transoceanic
09:32PM 24.9743 -153.1359 237° Southwest 437 503 34,000  Level FlightAware Transoceanic
09:33PM 24.9073 -153.2479 237° Southwest 437 503 34,000  Level FlightAware Transoceanic
09:34PM 24.8401 -153.3597 236° Southwest 437 503 34,000  Level FlightAware Transoceanic
09:35PM 24.7729 -153.4714 236° Southwest 437 503 34,000  Level FlightAware Transoceanic
09:36PM 24.7056 -153.5830 236° Southwest 437 503 34,000  Level FlightAware Transoceanic
09:37PM 24.6382 -153.6945 236° Southwest 437 503 34,000  Level FlightAware Transoceanic
09:38PM 24.5707 -153.8058 236° Southwest 437 503 34,000  Level FlightAware Transoceanic
09:39PM 24.5032 -153.9170 236° Southwest 437 503 34,000  Level FlightAware Transoceanic
09:40PM 24.4355 -154.0282 236° Southwest 437 503 34,000  Level FlightAware Transoceanic
09:41PM 24.3678 -154.1391 236° Southwest 437 503 34,000  Level FlightAware Transoceanic
09:42PM 24.3000 -154.2500 236° Southwest 437 503 34,000  Level FlightAware Transoceanic
09:43PM 24.2307 -154.3627 236° Southwest 437 503 34,000  Level FlightAware Transoceanic
09:44PM 24.1613 -154.4753 236° Southwest 437 503 34,000  Level FlightAware Transoceanic
09:44PM 24.1500 -154.4500 236° Southwest 420 483 34,000  Level Honolulu Center
09:45PM 24.0919 -154.5878 236° Southwest 437 503 34,000  Level FlightAware Transoceanic
09:45PM 24.0667 -154.5500 228° Southwest 450 518 34,000  Level Honolulu Center
09:46PM 24.0224 -154.7002 236° Southwest 437 503 34,000  Level FlightAware Transoceanic
09:46PM 23.9667 -154.6000 205° Southwest 430 495 34,000  Level Honolulu Center
09:47PM 23.9527 -154.8124 236° Southwest 437 503 34,000  Level FlightAware Transoceanic
09:47PM 23.8500 -154.6667 208° Southwest 430 495 34,000  Level Honolulu Center
09:48PM 23.8830 -154.9245 236° Southwest 437 503 34,000  Level FlightAware Transoceanic
09:48PM 23.7500 -154.7333 211° Southwest 430 495 34,000  Level Honolulu Center
09:49PM 23.8133 -155.0365 236° Southwest 437 503 34,000  Level FlightAware Transoceanic
09:49PM 23.6333 -154.7833 201° Southwest 430 495 34,000 -120 Level Honolulu Center
09:50PM 23.5333 -154.8500 211° Southwest 430 495 33,800 -540 Descending Honolulu Center
09:51PM 23.4333 -154.9167 211° Southwest 430 495 33,000 -420 Descending Honolulu Center
09:52PM 23.3167 -154.9833 208° Southwest 430 495 33,000  Level Honolulu Center
09:53PM 23.2167 -155.0500 211° Southwest 440 506 33,000  Level Honolulu Center
09:54PM 23.1167 -155.1167 212° Southwest 440 506 33,000  Level Honolulu Center
09:55PM 23.0000 -155.1667 202° Southwest 440 506 33,000  Level Honolulu Center
09:56PM 22.9000 -155.2333 212° Southwest 440 506 33,000  Level Honolulu Center
09:57PM 22.7833 -155.3000 208° Southwest 440 506 33,000  Level Honolulu Center
09:58PM 22.6833 -155.3667 212° Southwest 430 495 33,000  Level Honolulu Center
09:59PM 22.5667 -155.4333 208° Southwest 430 495 33,000  Level Honolulu Center
10:00PM 22.4667 -155.5000 212° Southwest 430 495 33,000 -600 Level Honolulu Center
10:01PM 22.3667 -155.5500 205° Southwest 440 506 31,800 -1,200 Descending Honolulu Center
10:02PM 22.2500 -155.6167 208° Southwest 440 506 30,700 -1,440 Descending Honolulu Center
10:03PM 22.1500 -155.6833 212° Southwest 430 495 29,000 -1,800 Descending Honolulu Center
10:04PM 22.0500 -155.7333 205° Southwest 410 472 27,200 -1,860 Descending Honolulu Center
10:05PM 21.9500 -155.8000 212° Southwest 410 472 25,300 -1,860 Descending Honolulu Center
10:06PM 21.8500 -155.8500 205° Southwest 400 460 23,500 -1,920 Descending Honolulu Center
10:07PM 21.7500 -155.9167 212° Southwest 390 449 21,500 -1,740 Descending Honolulu Center
10:08PM 21.6667 -155.9667 209° Southwest 380 437 20,000 -1,140 Descending Honolulu Center
10:09PM 21.5667 -156.0167 205° Southwest 370 426 19,300 -1,380 Descending Honolulu Center
10:10PM 21.4667 -156.0833 212° Southwest 370 426 17,300 -1,800 Descending Honolulu Center
10:11PM 21.3833 -156.1333 209° Southwest 360 414 15,700 -1,680 Descending Honolulu Center
10:12PM 21.3000 -156.1833 209° Southwest 350 403 14,000 -1,740 Descending Honolulu Center
10:13PM 21.2167 -156.2333 209° Southwest 340 391 12,300 -1,680 Descending Honolulu Center
10:14PM 21.1333 -156.2833 209° Southwest 340 391 10,700 -1,320 Descending Honolulu Center
10:15PM 21.0500 -156.3167 200° South 310 357 9,700 -960 Descending Honolulu Center
10:16PM 20.9667 -156.3500 200° South 280 322 8,800 -1,140 Descending Honolulu Center
10:17PM 20.9000 -156.3667 193° South 250 288 7,500 -1,560 Descending Honolulu Center
10:18PM 20.8500 -156.3833 197° South 230 265 5,700 -1,500 Descending Honolulu Center
10:19PM 20.7833 -156.4000 193° South 200 230 4,600 -1,320 Descending Honolulu Center
10:20PM 20.7333 -156.4333 212° Southwest 200 230 3,100 -840 Descending Honolulu Center
10:21PM 20.7667 -156.4833 305° West 180 207 3,000 -540 Descending Honolulu Center
10:22PM 20.8167 -156.4833 360° North 190 219 2,100 -1,140 Descending Honolulu Center
10:23PM 20.8500 -156.4500 43° Northeast 170 196 800 -1,320 Descending Honolulu Center